createdAt,value
2019-05-15T00:01:49.544Z,23.00
2019-05-15T00:04:20.352Z,23.00
2019-05-15T00:06:51.233Z,23.00
2019-05-15T00:09:22.066Z,23.00
2019-05-15T00:11:52.994Z,23.00
2019-05-15T00:14:23.861Z,23.00
2019-05-15T00:16:54.858Z,23.00
2019-05-15T00:19:28.317Z,23.00
2019-05-15T00:21:58.664Z,23.00
2019-05-15T00:24:29.635Z,23.00
2019-05-15T00:27:00.184Z,23.00
2019-05-15T00:29:30.913Z,23.00
2019-05-15T00:32:01.650Z,23.00
2019-05-15T00:34:32.395Z,23.10
2019-05-15T00:37:02.957Z,23.00
2019-05-15T00:39:33.746Z,23.00
2019-05-15T00:42:04.427Z,23.00
2019-05-15T00:44:35.522Z,23.00
2019-05-15T00:47:10.203Z,23.00
2019-05-15T00:49:38.814Z,23.00
2019-05-15T00:52:12.151Z,23.00
2019-05-15T00:54:42.732Z,23.00
2019-05-15T00:57:13.542Z,23.00
2019-05-15T00:59:44.587Z,23.00
2019-05-15T01:02:15.335Z,23.00
2019-05-15T01:04:47.996Z,23.00
2019-05-15T01:07:18.913Z,23.00
2019-05-15T01:09:49.816Z,23.00
2019-05-15T01:12:20.520Z,23.00
2019-05-15T01:14:51.388Z,23.00
2019-05-15T01:17:22.134Z,23.00
2019-05-15T01:19:52.921Z,23.00
2019-05-15T01:22:23.676Z,23.00
2019-05-15T01:24:55.468Z,23.00
2019-05-15T01:27:29.006Z,23.00
2019-05-15T01:29:58.929Z,23.00
2019-05-15T01:32:29.745Z,23.00
2019-05-15T01:35:00.627Z,23.00
2019-05-15T01:37:31.466Z,23.00
2019-05-15T01:40:02.325Z,23.00
2019-05-15T01:42:33.132Z,23.00
2019-05-15T01:45:03.765Z,23.00
2019-05-15T01:47:34.727Z,23.00
2019-05-15T01:50:05.663Z,23.00
2019-05-15T01:52:38.680Z,23.00
2019-05-15T01:55:09.514Z,23.00
2019-05-15T01:57:40.286Z,22.90
2019-05-15T02:00:11.224Z,23.00
2019-05-15T02:02:43.026Z,22.90
2019-05-15T02:05:13.777Z,22.90
2019-05-15T02:07:44.452Z,23.00
2019-05-15T02:10:15.248Z,22.90
2019-05-15T02:12:47.987Z,22.90
2019-05-15T02:15:19.011Z,22.90
2019-05-15T02:17:49.863Z,23.00
2019-05-15T02:20:20.582Z,23.00
2019-05-15T02:22:51.730Z,23.00
2019-05-15T02:25:22.607Z,23.00
2019-05-15T02:27:53.418Z,23.00
2019-05-15T02:30:28.941Z,23.00
2019-05-15T02:32:58.972Z,23.00
2019-05-15T02:35:29.784Z,23.00
2019-05-15T02:38:00.556Z,23.00
2019-05-15T02:40:31.208Z,23.00
2019-05-15T02:43:01.937Z,23.00
2019-05-15T02:45:36.428Z,23.00
2019-05-15T02:48:08.617Z,23.00
2019-05-15T02:50:39.092Z,23.00
2019-05-15T02:53:10.981Z,23.00
2019-05-15T02:55:41.734Z,22.90
2019-05-15T02:58:12.635Z,23.00
2019-05-15T03:00:48.339Z,22.90
2019-05-15T03:03:16.053Z,23.00
2019-05-15T03:05:49.635Z,22.90
2019-05-15T03:08:19.915Z,22.90
2019-05-15T03:10:50.660Z,22.90
2019-05-15T03:13:21.560Z,22.90
2019-05-15T03:15:52.424Z,22.90
2019-05-15T03:18:23.673Z,23.00
2019-05-15T03:20:54.591Z,23.00
2019-05-15T03:23:29.161Z,23.00
2019-05-15T03:26:03.011Z,23.00
2019-05-15T03:28:31.841Z,23.00
2019-05-15T03:31:20.832Z,23.00
2019-05-15T03:33:43.838Z,23.00
2019-05-15T03:36:13.181Z,23.00
2019-05-15T03:38:41.936Z,23.00
2019-05-15T03:41:13.113Z,23.00
2019-05-15T03:43:44.436Z,23.00
2019-05-15T03:46:15.630Z,23.00
2019-05-15T03:48:48.777Z,23.00
2019-05-15T03:51:19.945Z,23.00
2019-05-15T03:53:51.339Z,23.00
2019-05-15T03:56:22.319Z,23.00
2019-05-15T03:58:53.252Z,23.00
2019-05-15T04:01:34.113Z,23.00
2019-05-15T04:03:59.612Z,23.00
2019-05-15T04:06:29.996Z,23.00
2019-05-15T04:09:00.718Z,23.00
2019-05-15T04:11:31.625Z,23.00
2019-05-15T04:14:02.519Z,23.10
2019-05-15T04:16:33.431Z,23.10
2019-05-15T04:19:04.449Z,23.10
2019-05-15T04:21:35.315Z,23.10
2019-05-15T04:24:09.260Z,23.10
2019-05-15T04:26:39.482Z,23.10
2019-05-15T04:29:10.488Z,23.10
2019-05-15T04:31:58.969Z,23.10
2019-05-15T04:34:13.911Z,23.10
2019-05-15T04:36:45.012Z,23.10
2019-05-15T04:39:19.085Z,23.10
2019-05-15T04:41:50.099Z,23.10
2019-05-15T04:44:21.131Z,23.10
2019-05-15T04:46:52.034Z,23.10
2019-05-15T04:49:22.874Z,23.00
2019-05-15T04:51:59.293Z,23.00
2019-05-15T04:54:28.826Z,23.00
2019-05-15T04:56:59.655Z,23.00
2019-05-15T04:59:31.051Z,23.00
2019-05-15T05:02:16.350Z,23.00
2019-05-15T05:04:34.351Z,23.00
2019-05-15T05:07:05.035Z,23.00
2019-05-15T05:09:38.771Z,23.00
2019-05-15T05:12:08.616Z,23.00
2019-05-15T05:14:39.662Z,23.00
2019-05-15T05:17:10.937Z,23.10
2019-05-15T05:19:41.760Z,23.10
2019-05-15T05:22:12.413Z,23.00
2019-05-15T05:24:43.308Z,23.00
2019-05-15T05:27:14.207Z,23.10
2019-05-15T05:29:44.906Z,23.10
2019-05-15T05:32:28.836Z,23.20
2019-05-15T05:34:48.378Z,23.30
2019-05-15T05:37:19.049Z,23.30
2019-05-15T05:39:50.077Z,23.40
2019-05-15T05:42:20.946Z,23.50
2019-05-15T05:44:51.562Z,23.50
2019-05-15T05:47:22.302Z,23.50
2019-05-15T05:49:53.578Z,23.60
2019-05-15T05:52:24.489Z,23.60
2019-05-15T05:54:55.426Z,23.60
2019-05-15T05:57:27.953Z,23.70
2019-05-15T05:59:59.075Z,24.00
2019-05-15T06:02:43.847Z,24.10
2019-05-15T06:05:02.949Z,24.10
2019-05-15T06:07:35.483Z,24.00
2019-05-15T06:10:08.894Z,24.00
2019-05-15T06:12:40.330Z,24.00
2019-05-15T06:15:11.129Z,24.20
2019-05-15T06:17:41.813Z,24.20
2019-05-15T06:20:14.150Z,24.20
2019-05-15T06:22:44.911Z,24.10
2019-05-15T06:25:19.497Z,24.10
2019-05-15T06:27:48.513Z,24.00
2019-05-15T06:30:26.530Z,24.00
2019-05-15T06:33:04.591Z,24.00
2019-05-15T06:35:24.914Z,24.30
2019-05-15T06:37:56.177Z,25.10
2019-05-15T06:40:28.958Z,25.30
2019-05-15T06:43:00.060Z,25.30
2019-05-15T06:45:31.418Z,25.00
2019-05-15T06:48:02.387Z,24.80
2019-05-15T06:50:40.362Z,24.50
2019-05-15T06:53:11.512Z,24.40
2019-05-15T06:55:42.464Z,24.30
2019-05-15T06:58:13.517Z,24.20
2019-05-15T07:00:44.526Z,24.00
2019-05-15T07:03:23.954Z,24.00
2019-05-15T07:05:50.711Z,23.90
2019-05-15T07:08:20.652Z,23.90
2019-05-15T07:10:51.667Z,23.90
2019-05-15T07:13:22.742Z,23.80
2019-05-15T07:15:53.656Z,23.80
2019-05-15T07:18:24.416Z,23.70
2019-05-15T07:20:57.929Z,23.70
2019-05-15T07:23:30.558Z,23.70
2019-05-15T07:26:00.762Z,23.60
2019-05-15T07:28:31.919Z,23.60
2019-05-15T07:31:02.762Z,23.60
2019-05-15T07:33:39.629Z,23.50
2019-05-15T07:36:08.368Z,23.50
2019-05-15T07:38:39.344Z,23.50
2019-05-15T07:41:10.673Z,23.50
2019-05-15T07:43:41.843Z,23.40
2019-05-15T07:46:12.818Z,23.50
2019-05-15T07:48:44.096Z,23.40
2019-05-15T07:51:17.828Z,23.40
2019-05-15T07:53:48.939Z,23.40
2019-05-15T07:56:20.088Z,23.40
2019-05-15T07:58:52.864Z,23.40
2019-05-15T08:01:23.860Z,23.30
2019-05-15T08:04:01.787Z,23.40
2019-05-15T08:06:28.961Z,23.40
2019-05-15T08:09:00.198Z,23.40
2019-05-15T08:11:31.227Z,23.40
2019-05-15T08:14:03.726Z,23.40
2019-05-15T08:16:35.679Z,23.40
2019-05-15T08:19:08.572Z,23.40
2019-05-15T08:21:39.706Z,23.40
2019-05-15T08:24:10.494Z,23.40
2019-05-15T08:26:45.289Z,23.30
2019-05-15T08:29:13.850Z,23.40
2019-05-15T08:31:44.912Z,23.30
2019-05-15T08:34:16.473Z,23.30
2019-05-15T08:36:48.447Z,23.30
2019-05-15T08:39:19.481Z,23.30
2019-05-15T08:41:50.365Z,23.30
2019-05-15T08:44:21.226Z,23.30
2019-05-15T08:46:52.057Z,23.30
2019-05-15T08:49:22.894Z,23.30
2019-05-15T08:51:53.704Z,23.30
2019-05-15T08:54:24.388Z,23.30
2019-05-15T08:56:55.504Z,23.20
2019-05-15T08:59:29.275Z,23.30
2019-05-15T09:01:59.018Z,23.30
2019-05-15T09:04:34.501Z,23.20
2019-05-15T09:07:02.463Z,23.20
2019-05-15T09:09:33.480Z,23.30
2019-05-15T09:12:04.628Z,23.20
2019-05-15T09:14:35.271Z,23.20
2019-05-15T09:17:08.523Z,23.30
2019-05-15T09:19:38.928Z,23.20
2019-05-15T09:22:10.403Z,23.30
2019-05-15T09:24:41.350Z,23.30
2019-05-15T09:27:12.252Z,23.30
2019-05-15T09:29:43.250Z,23.20
2019-05-15T09:32:14.186Z,23.30
2019-05-15T09:34:53.938Z,23.20
2019-05-15T09:37:18.137Z,23.20
2019-05-15T09:39:49.169Z,23.20
2019-05-15T09:42:20.185Z,23.20
2019-05-15T09:44:51.110Z,23.20
2019-05-15T09:47:22.557Z,23.20
2019-05-15T09:49:53.756Z,23.20
2019-05-15T09:52:24.602Z,23.20
2019-05-15T09:54:55.563Z,23.20
2019-05-15T09:57:26.464Z,23.20
2019-05-15T09:59:58.648Z,23.10
2019-05-15T10:02:30.310Z,23.10
2019-05-15T10:05:06.342Z,23.10
2019-05-15T10:07:34.254Z,23.20
2019-05-15T10:10:05.617Z,23.10
2019-05-15T10:12:38.635Z,23.10
2019-05-15T10:15:11.283Z,23.20
2019-05-15T10:17:41.662Z,23.20
2019-05-15T10:20:12.363Z,23.10
2019-05-15T10:22:43.046Z,23.10
2019-05-15T10:25:14.079Z,23.10
2019-05-15T10:27:44.712Z,23.10
2019-05-15T10:30:15.325Z,23.10
2019-05-15T10:32:48.489Z,23.10
2019-05-15T10:35:25.770Z,23.10
2019-05-15T10:37:50.721Z,23.10
2019-05-15T10:40:21.236Z,23.10
2019-05-15T10:42:51.933Z,23.10
2019-05-15T10:45:22.910Z,23.10
2019-05-15T10:47:53.436Z,23.10
2019-05-15T10:50:24.370Z,23.10
2019-05-15T10:52:55.336Z,23.10
2019-05-15T10:55:26.153Z,23.20
2019-05-15T10:57:56.991Z,23.30
2019-05-15T11:00:28.629Z,23.30
2019-05-15T11:02:59.499Z,23.30
2019-05-15T11:05:40.661Z,23.30
2019-05-15T11:08:03.026Z,23.20
2019-05-15T11:10:33.668Z,23.20
2019-05-15T11:13:04.479Z,23.20
2019-05-15T11:15:35.249Z,23.20
2019-05-15T11:18:06.127Z,23.20
2019-05-15T11:20:40.962Z,23.10
2019-05-15T11:23:19.495Z,23.10
2019-05-15T11:25:48.930Z,23.10
2019-05-15T11:28:19.926Z,23.10
2019-05-15T11:30:51.020Z,23.10
2019-05-15T11:33:21.830Z,23.10
2019-05-15T11:36:00.417Z,23.10
2019-05-15T11:38:25.271Z,23.00
2019-05-15T11:40:56.038Z,23.00
2019-05-15T11:43:29.125Z,23.00
2019-05-15T11:45:59.511Z,23.00
2019-05-15T11:48:30.255Z,23.00
2019-05-15T11:51:01.116Z,23.10
2019-05-15T11:53:32.253Z,23.10
2019-05-15T11:56:03.222Z,23.10
2019-05-15T11:58:34.307Z,23.10
2019-05-15T12:01:05.195Z,23.10
2019-05-15T12:03:38.520Z,23.10
2019-05-15T12:06:18.005Z,23.10
2019-05-15T12:08:41.523Z,23.10
2019-05-15T12:11:28.652Z,23.20
2019-05-15T12:13:45.273Z,23.20
2019-05-15T12:16:16.233Z,23.20
2019-05-15T12:18:48.317Z,23.20
2019-05-15T12:23:51.814Z,23.20
2019-05-15T12:26:22.725Z,23.20
2019-05-15T12:28:53.859Z,23.20
2019-05-15T12:31:24.884Z,23.20
2019-05-15T12:33:58.186Z,23.20
2019-05-15T12:36:50.174Z,23.10
2019-05-15T12:39:09.485Z,23.20
2019-05-15T13:01:55.827Z,23.10
2019-05-15T13:04:28.458Z,23.10
2019-05-15T13:07:13.058Z,23.10
2019-05-15T13:09:32.164Z,23.10
2019-05-15T13:12:02.871Z,23.10
2019-05-15T13:14:33.688Z,23.10
2019-05-15T13:17:04.903Z,23.20
2019-05-15T13:19:38.606Z,23.10
2019-05-15T13:22:17.557Z,23.10
2019-05-15T13:24:41.022Z,23.10
2019-05-15T13:27:12.011Z,23.10
2019-05-15T13:29:42.821Z,23.10
2019-05-15T13:32:13.876Z,23.10
2019-05-15T13:34:44.520Z,23.10
2019-05-15T13:37:26.330Z,23.10
2019-05-15T13:39:48.602Z,23.10
2019-05-15T13:42:19.391Z,23.00
2019-05-15T13:44:50.415Z,23.10
2019-05-15T13:47:21.143Z,23.10
2019-05-15T13:49:52.066Z,23.00
2019-05-15T13:52:23.034Z,23.10
2019-05-15T13:54:53.841Z,23.00
2019-05-15T13:57:25.192Z,23.00
2019-05-15T13:59:58.770Z,23.00
2019-05-15T14:02:28.701Z,23.00
2019-05-15T14:04:59.841Z,23.00
2019-05-15T14:07:44.955Z,23.00
2019-05-15T14:10:03.802Z,23.10
2019-05-15T14:12:35.190Z,23.10
2019-05-15T14:15:08.818Z,23.00
2019-05-15T14:17:39.074Z,23.00
2019-05-15T14:20:10.227Z,23.10
2019-05-15T14:22:41.068Z,23.00
2019-05-15T14:25:12.126Z,23.00
2019-05-15T14:27:43.370Z,23.00
2019-05-15T14:30:14.569Z,23.00
2019-05-15T14:32:48.265Z,23.00
2019-05-15T14:35:18.159Z,23.00
2019-05-15T14:38:02.545Z,23.00
2019-05-15T14:40:21.523Z,23.00
2019-05-15T14:42:52.354Z,23.00
2019-05-15T14:45:23.562Z,23.00
2019-05-15T14:47:54.359Z,23.00
2019-05-15T14:50:25.188Z,23.00
2019-05-15T14:52:58.409Z,23.00
2019-05-15T14:55:33.309Z,23.00
2019-05-15T14:58:01.474Z,23.00
2019-05-15T15:00:34.913Z,23.00
2019-05-15T15:03:09.242Z,23.00
2019-05-15T15:05:39.361Z,23.00
2019-05-15T15:08:21.558Z,23.00
2019-05-15T15:10:43.045Z,23.10
2019-05-15T15:13:15.557Z,23.10
2019-05-15T15:15:48.488Z,23.10
2019-05-15T15:18:19.270Z,23.20
2019-05-15T15:20:50.126Z,23.10
2019-05-15T15:23:20.952Z,23.20
2019-05-15T15:25:51.984Z,23.20
2019-05-15T15:28:23.212Z,23.20
2019-05-15T15:30:54.887Z,23.20
2019-05-15T15:33:28.644Z,23.10
2019-05-15T15:35:58.648Z,23.10
2019-05-15T15:38:40.244Z,23.10
2019-05-15T15:41:02.828Z,23.10
2019-05-15T15:43:33.824Z,23.10
2019-05-15T15:46:04.499Z,23.10
2019-05-15T15:48:35.244Z,23.10
2019-05-15T15:51:05.851Z,23.10
2019-05-15T15:53:38.905Z,23.00
2019-05-15T15:56:10.629Z,23.10
2019-05-15T15:58:41.495Z,23.10
2019-05-15T16:01:12.253Z,23.10
2019-05-15T16:03:42.928Z,23.00
2019-05-15T16:06:13.531Z,23.10
2019-05-15T16:08:52.981Z,23.10
2019-05-15T16:11:18.790Z,23.10
2019-05-15T16:13:50.003Z,23.10
2019-05-15T16:16:20.933Z,23.10
2019-05-15T16:18:51.764Z,23.10
2019-05-15T16:21:22.963Z,23.00
2019-05-15T16:23:53.758Z,23.00
2019-05-15T16:26:24.858Z,23.00
2019-05-15T16:28:58.008Z,23.00
2019-05-15T16:31:28.267Z,23.00
2019-05-15T16:33:58.985Z,23.00
2019-05-15T16:36:29.947Z,23.00
2019-05-15T16:39:07.756Z,23.00
2019-05-15T16:41:33.174Z,23.00
2019-05-15T16:44:03.943Z,23.00
2019-05-15T16:46:34.924Z,23.00
2019-05-15T16:49:05.635Z,23.00
2019-05-15T16:51:38.346Z,23.00
2019-05-15T16:54:08.956Z,23.00
2019-05-15T16:56:40.240Z,22.90
2019-05-15T16:59:11.563Z,22.90
2019-05-15T17:01:42.706Z,22.90
2019-05-15T17:04:13.558Z,23.00
2019-05-15T17:06:44.271Z,23.00
2019-05-15T17:09:21.345Z,23.00
2019-05-15T17:11:49.194Z,22.90
2019-05-15T17:14:20.141Z,23.00
2019-05-15T17:16:50.919Z,23.00
2019-05-15T17:19:24.634Z,22.90
2019-05-15T17:21:58.369Z,22.90
2019-05-15T17:24:28.709Z,23.00
2019-05-15T17:26:59.822Z,23.00
2019-05-15T17:29:30.761Z,23.00
2019-05-15T17:32:01.743Z,23.00
2019-05-15T17:34:32.795Z,23.10
2019-05-15T17:37:03.783Z,23.00
2019-05-15T17:39:37.923Z,23.10
2019-05-15T17:42:07.064Z,23.10
2019-05-15T17:44:38.333Z,23.10
2019-05-15T17:47:09.703Z,23.10
2019-05-15T17:49:40.838Z,23.20
2019-05-15T17:52:11.655Z,23.20
2019-05-15T17:54:44.975Z,23.20
2019-05-15T17:57:15.229Z,23.30
2019-05-15T17:59:48.499Z,23.30
2019-05-15T18:02:19.142Z,23.30
2019-05-15T18:04:49.998Z,23.30
2019-05-15T18:07:20.653Z,23.30
2019-05-15T18:09:54.417Z,23.30
2019-05-15T18:12:24.457Z,23.30
2019-05-15T18:14:55.417Z,23.40
2019-05-15T18:17:26.247Z,23.40
2019-05-15T18:19:58.096Z,23.40
2019-05-15T18:22:29.149Z,23.40
2019-05-15T18:24:59.686Z,23.40
2019-05-15T18:27:30.534Z,23.40
2019-05-15T18:30:01.193Z,23.40
2019-05-15T18:32:31.903Z,23.40
2019-05-15T18:35:02.646Z,23.40
2019-05-15T18:37:33.822Z,23.30
2019-05-15T18:40:06.196Z,23.40
2019-05-15T18:42:39.159Z,23.50
2019-05-15T18:45:10.482Z,23.60
2019-05-15T18:47:41.242Z,23.80
2019-05-15T18:50:13.386Z,23.90
2019-05-15T18:52:44.559Z,23.90
2019-05-15T18:55:15.481Z,23.80
2019-05-15T18:57:48.481Z,23.80
2019-05-15T19:00:19.097Z,23.70
2019-05-15T19:02:49.928Z,23.60
2019-05-15T19:05:20.688Z,23.60
2019-05-15T19:07:51.513Z,23.50
2019-05-15T19:10:22.619Z,23.50
2019-05-15T19:12:53.372Z,23.40
2019-05-15T19:15:24.511Z,23.40
2019-05-15T19:17:55.544Z,23.40
2019-05-15T19:20:28.046Z,23.40
2019-05-15T19:22:59.177Z,23.40
2019-05-15T19:25:30.140Z,23.60
2019-05-15T19:28:00.939Z,23.80
2019-05-15T19:30:31.767Z,23.90
2019-05-15T19:33:02.888Z,24.00
2019-05-15T19:35:33.778Z,24.20
2019-05-15T19:38:04.694Z,24.30
2019-05-15T19:40:35.691Z,24.40
2019-05-15T19:43:09.079Z,24.40
2019-05-15T19:45:39.284Z,24.50
2019-05-15T19:48:10.308Z,24.50
2019-05-15T19:50:41.219Z,24.50
2019-05-15T19:53:12.253Z,24.60
2019-05-15T19:55:43.471Z,24.60
2019-05-15T19:58:14.473Z,24.70
2019-05-15T20:00:45.377Z,24.70
2019-05-15T20:03:17.848Z,24.70
2019-05-15T20:05:48.684Z,24.70
2019-05-15T20:08:19.402Z,24.70
2019-05-15T20:10:50.288Z,24.80
2019-05-15T20:13:21.420Z,24.70
2019-05-15T20:15:52.617Z,24.70
2019-05-15T20:18:23.466Z,24.80
2019-05-15T20:20:54.442Z,24.70
2019-05-15T20:23:25.351Z,24.70
2019-05-15T20:25:57.693Z,24.60
2019-05-15T20:28:28.829Z,24.60
2019-05-15T20:30:59.978Z,24.50
2019-05-15T20:33:30.712Z,24.50
2019-05-15T20:36:01.905Z,24.40
2019-05-15T20:38:32.834Z,24.30
2019-05-15T20:41:03.868Z,24.20
2019-05-15T20:43:34.910Z,24.20
2019-05-15T20:46:08.297Z,24.10
2019-05-15T20:48:38.419Z,24.10
2019-05-15T20:51:09.280Z,24.10
2019-05-15T20:53:40.542Z,24.10
2019-05-15T20:56:11.495Z,24.10
2019-05-15T20:58:42.787Z,24.10
2019-05-15T21:01:13.710Z,24.10
2019-05-15T21:03:44.881Z,24.10
2019-05-15T21:06:17.914Z,24.00
2019-05-15T21:08:49.065Z,24.00
2019-05-15T21:11:20.029Z,24.00
2019-05-15T21:13:51.371Z,23.90
2019-05-15T21:16:22.359Z,23.90
2019-05-15T21:18:53.591Z,23.80
2019-05-15T21:21:24.467Z,23.80
2019-05-15T21:23:55.553Z,23.80
2019-05-15T21:26:27.123Z,23.80
2019-05-15T21:28:58.978Z,23.70
2019-05-15T21:31:29.917Z,23.70
2019-05-15T21:34:02.512Z,23.70
2019-05-15T21:36:34.674Z,23.60
2019-05-15T21:39:07.464Z,23.70
2019-05-15T21:41:38.970Z,23.60
2019-05-15T21:44:10.588Z,23.60
2019-05-15T21:46:42.734Z,23.60
2019-05-15T21:49:19.182Z,23.60
2019-05-15T21:51:52.077Z,23.50
2019-05-15T21:54:28.340Z,23.60
2019-05-15T21:57:18.900Z,23.60
2019-05-15T21:59:34.631Z,23.60
2019-05-15T22:02:05.957Z,23.60
2019-05-15T22:04:51.899Z,23.60
2019-05-15T22:07:12.134Z,23.60
2019-05-15T22:09:43.489Z,23.60
2019-05-15T22:12:18.254Z,23.60
2019-05-15T22:14:49.632Z,23.60
2019-05-15T22:17:20.690Z,23.50
2019-05-15T22:19:53.033Z,23.50
2019-05-15T22:22:24.658Z,23.60
2019-05-15T22:24:55.737Z,23.50
2019-05-15T22:27:29.003Z,23.50
2019-05-15T22:29:59.632Z,23.50
2019-05-15T22:32:30.411Z,23.50
2019-05-15T22:35:09.286Z,23.50
2019-05-15T22:37:34.066Z,23.60
2019-05-15T22:40:04.637Z,23.50
2019-05-15T22:42:35.093Z,23.50
2019-05-15T22:45:08.987Z,23.50
2019-05-15T22:47:39.172Z,23.50
2019-05-15T22:50:10.174Z,23.50
2019-05-15T22:52:41.218Z,23.50
2019-05-15T22:55:12.010Z,23.50
2019-05-15T22:57:42.800Z,23.40
2019-05-15T23:00:13.865Z,23.40
2019-05-15T23:02:45.071Z,23.40
2019-05-15T23:05:27.377Z,23.40
2019-05-15T23:07:51.032Z,23.50
2019-05-15T23:10:24.578Z,23.50
2019-05-15T23:12:55.325Z,23.50
2019-05-15T23:15:28.117Z,23.50
2019-05-15T23:17:58.829Z,23.40
2019-05-15T23:20:29.672Z,23.50
2019-05-15T23:23:00.465Z,23.50
2019-05-15T23:25:31.387Z,23.50
2019-05-15T23:28:02.667Z,23.40
2019-05-15T23:30:33.526Z,23.50
2019-05-15T23:33:04.733Z,23.50
2019-05-15T23:35:38.223Z,23.40
2019-05-15T23:38:08.427Z,23.40
2019-05-15T23:40:39.427Z,23.40
2019-05-15T23:43:10.614Z,23.40
2019-05-15T23:45:41.507Z,23.40
2019-05-15T23:48:12.391Z,23.40
2019-05-15T23:50:43.099Z,23.40
2019-05-15T23:53:16.547Z,23.40
2019-05-15T23:55:46.699Z,23.30
2019-05-15T23:58:18.839Z,23.40
